sensor_id;sensor_type;location;lat;lon;timestamp;temperature;humidity
18297;DHT22;18066;52.106;5.534;2023-04-23T00:01:13;9.70;99.90
18297;DHT22;18066;52.106;5.534;2023-04-23T00:03:41;9.70;99.90
18297;DHT22;18066;52.106;5.534;2023-04-23T00:06:09;9.70;99.90
18297;DHT22;18066;52.106;5.534;2023-04-23T00:08:38;9.70;99.90
18297;DHT22;18066;52.106;5.534;2023-04-23T00:11:05;9.70;99.90
18297;DHT22;18066;52.106;5.534;2023-04-23T00:13:34;9.70;99.90
18297;DHT22;18066;52.106;5.534;2023-04-23T00:16:01;9.70;99.90
18297;DHT22;18066;52.106;5.534;2023-04-23T00:18:28;9.70;99.90
18297;DHT22;18066;52.106;5.534;2023-04-23T00:20:55;9.60;99.90
18297;DHT22;18066;52.106;5.534;2023-04-23T00:23:22;9.60;99.90
18297;DHT22;18066;52.106;5.534;2023-04-23T00:25:48;9.60;99.90
18297;DHT22;18066;52.106;5.534;2023-04-23T00:28:15;9.60;99.90
18297;DHT22;18066;52.106;5.534;2023-04-23T00:30:43;9.60;99.90
18297;DHT22;18066;52.106;5.534;2023-04-23T00:33:10;9.60;99.90
18297;DHT22;18066;52.106;5.534;2023-04-23T00:35:37;9.60;99.90
18297;DHT22;18066;52.106;5.534;2023-04-23T00:38:03;9.60;99.90
18297;DHT22;18066;52.106;5.534;2023-04-23T00:40:30;9.60;99.90
18297;DHT22;18066;52.106;5.534;2023-04-23T00:42:58;9.60;99.90
18297;DHT22;18066;52.106;5.534;2023-04-23T00:45:24;9.60;99.90
18297;DHT22;18066;52.106;5.534;2023-04-23T00:47:53;9.60;99.90
18297;DHT22;18066;52.106;5.534;2023-04-23T00:50:20;9.60;99.90
18297;DHT22;18066;52.106;5.534;2023-04-23T00:52:47;9.50;99.90
18297;DHT22;18066;52.106;5.534;2023-04-23T00:55:14;9.40;99.90
18297;DHT22;18066;52.106;5.534;2023-04-23T00:57:41;9.50;99.90
18297;DHT22;18066;52.106;5.534;2023-04-23T01:00:08;9.40;99.90
18297;DHT22;18066;52.106;5.534;2023-04-23T01:02:38;9.40;99.90
18297;DHT22;18066;52.106;5.534;2023-04-23T01:05:08;9.40;99.90
18297;DHT22;18066;52.106;5.534;2023-04-23T01:07:36;9.40;99.90
18297;DHT22;18066;52.106;5.534;2023-04-23T01:10:03;9.40;99.90
18297;DHT22;18066;52.106;5.534;2023-04-23T01:12:30;9.40;99.90
18297;DHT22;18066;52.106;5.534;2023-04-23T01:14:57;9.50;99.90
18297;DHT22;18066;52.106;5.534;2023-04-23T01:17:24;9.50;99.90
18297;DHT22;18066;52.106;5.534;2023-04-23T01:19:52;9.50;99.90
18297;DHT22;18066;52.106;5.534;2023-04-23T01:22:20;9.60;99.90
18297;DHT22;18066;52.106;5.534;2023-04-23T01:24:47;9.60;99.90
18297;DHT22;18066;52.106;5.534;2023-04-23T01:27:15;9.70;99.90
18297;DHT22;18066;52.106;5.534;2023-04-23T01:29:43;9.60;99.90
18297;DHT22;18066;52.106;5.534;2023-04-23T01:32:11;9.70;99.90
18297;DHT22;18066;52.106;5.534;2023-04-23T01:34:38;9.60;99.90
18297;DHT22;18066;52.106;5.534;2023-04-23T01:37:06;9.60;99.90
18297;DHT22;18066;52.106;5.534;2023-04-23T01:39:34;9.50;99.90
18297;DHT22;18066;52.106;5.534;2023-04-23T01:42:01;9.50;99.90
18297;DHT22;18066;52.106;5.534;2023-04-23T01:44:28;9.60;99.90
18297;DHT22;18066;52.106;5.534;2023-04-23T01:46:55;9.60;99.90
18297;DHT22;18066;52.106;5.534;2023-04-23T01:49:22;9.50;99.90
18297;DHT22;18066;52.106;5.534;2023-04-23T01:51:49;9.50;99.90
18297;DHT22;18066;52.106;5.534;2023-04-23T01:54:16;9.50;99.90
18297;DHT22;18066;52.106;5.534;2023-04-23T01:56:44;9.60;99.90
18297;DHT22;18066;52.106;5.534;2023-04-23T01:59:11;9.60;99.90
18297;DHT22;18066;52.106;5.534;2023-04-23T02:01:42;9.60;99.90
18297;DHT22;18066;52.106;5.534;2023-04-23T02:04:10;9.60;99.90
18297;DHT22;18066;52.106;5.534;2023-04-23T02:06:37;9.60;99.90
18297;DHT22;18066;52.106;5.534;2023-04-23T02:09:04;9.60;99.90
18297;DHT22;18066;52.106;5.534;2023-04-23T02:11:31;9.60;99.90
18297;DHT22;18066;52.106;5.534;2023-04-23T02:13:59;9.60;99.90
18297;DHT22;18066;52.106;5.534;2023-04-23T02:16:26;9.60;99.90
18297;DHT22;18066;52.106;5.534;2023-04-23T02:18:53;9.60;99.90
18297;DHT22;18066;52.106;5.534;2023-04-23T02:21:20;9.60;99.90
18297;DHT22;18066;52.106;5.534;2023-04-23T02:23:47;9.60;99.90
18297;DHT22;18066;52.106;5.534;2023-04-23T02:26:15;9.70;99.90
18297;DHT22;18066;52.106;5.534;2023-04-23T02:28:43;9.70;99.90
18297;DHT22;18066;52.106;5.534;2023-04-23T02:31:11;9.70;99.90
18297;DHT22;18066;52.106;5.534;2023-04-23T02:33:39;9.70;99.90
18297;DHT22;18066;52.106;5.534;2023-04-23T02:36:07;9.70;99.90
18297;DHT22;18066;52.106;5.534;2023-04-23T02:38:35;9.80;99.90
18297;DHT22;18066;52.106;5.534;2023-04-23T02:41:01;9.80;99.90
18297;DHT22;18066;52.106;5.534;2023-04-23T02:43:28;9.80;99.90
18297;DHT22;18066;52.106;5.534;2023-04-23T02:45:55;9.90;99.90
18297;DHT22;18066;52.106;5.534;2023-04-23T02:48:23;9.80;99.90
18297;DHT22;18066;52.106;5.534;2023-04-23T02:50:51;9.80;99.90
18297;DHT22;18066;52.106;5.534;2023-04-23T02:53:18;9.80;99.90
18297;DHT22;18066;52.106;5.534;2023-04-23T02:55:45;9.80;99.90
18297;DHT22;18066;52.106;5.534;2023-04-23T02:58:12;9.70;99.90
18297;DHT22;18066;52.106;5.534;2023-04-23T03:00:38;9.80;99.90
18297;DHT22;18066;52.106;5.534;2023-04-23T03:03:05;9.70;99.90
18297;DHT22;18066;52.106;5.534;2023-04-23T03:05:33;9.70;99.90
18297;DHT22;18066;52.106;5.534;2023-04-23T03:08:00;9.60;99.90
18297;DHT22;18066;52.106;5.534;2023-04-23T03:10:27;9.60;99.90
18297;DHT22;18066;52.106;5.534;2023-04-23T03:12:53;9.50;99.90
18297;DHT22;18066;52.106;5.534;2023-04-23T03:15:20;9.60;99.90
18297;DHT22;18066;52.106;5.534;2023-04-23T03:17:47;9.60;99.90
18297;DHT22;18066;52.106;5.534;2023-04-23T03:20:15;9.60;99.90
18297;DHT22;18066;52.106;5.534;2023-04-23T03:22:44;9.60;99.90
18297;DHT22;18066;52.106;5.534;2023-04-23T03:25:11;9.70;99.90
18297;DHT22;18066;52.106;5.534;2023-04-23T03:27:38;9.60;99.90
18297;DHT22;18066;52.106;5.534;2023-04-23T03:30:07;9.70;99.90
18297;DHT22;18066;52.106;5.534;2023-04-23T03:32:35;9.70;99.90
18297;DHT22;18066;52.106;5.534;2023-04-23T03:35:01;9.70;99.90
18297;DHT22;18066;52.106;5.534;2023-04-23T03:37:28;9.70;99.90
18297;DHT22;18066;52.106;5.534;2023-04-23T03:39:56;9.70;99.90
18297;DHT22;18066;52.106;5.534;2023-04-23T03:42:23;9.70;99.90
18297;DHT22;18066;52.106;5.534;2023-04-23T03:44:50;9.70;99.90
18297;DHT22;18066;52.106;5.534;2023-04-23T03:47:16;9.70;99.90
18297;DHT22;18066;52.106;5.534;2023-04-23T03:49:44;9.70;99.90
18297;DHT22;18066;52.106;5.534;2023-04-23T03:52:11;9.70;99.90
18297;DHT22;18066;52.106;5.534;2023-04-23T03:54:37;9.60;99.90
18297;DHT22;18066;52.106;5.534;2023-04-23T03:57:05;9.60;99.90
18297;DHT22;18066;52.106;5.534;2023-04-23T03:59:32;9.60;99.90
18297;DHT22;18066;52.106;5.534;2023-04-23T04:01:59;9.60;99.90
18297;DHT22;18066;52.106;5.534;2023-04-23T04:04:28;9.60;99.90
18297;DHT22;18066;52.106;5.534;2023-04-23T04:06:55;9.60;99.90
18297;DHT22;18066;52.106;5.534;2023-04-23T04:09:22;9.60;99.90
18297;DHT22;18066;52.106;5.534;2023-04-23T04:11:48;9.50;99.90
18297;DHT22;18066;52.106;5.534;2023-04-23T04:14:17;9.50;99.90
18297;DHT22;18066;52.106;5.534;2023-04-23T04:16:43;9.50;99.90
18297;DHT22;18066;52.106;5.534;2023-04-23T04:19:10;9.40;99.90
18297;DHT22;18066;52.106;5.534;2023-04-23T04:21:37;9.50;99.90
18297;DHT22;18066;52.106;5.534;2023-04-23T04:24:04;9.50;99.90
18297;DHT22;18066;52.106;5.534;2023-04-23T04:26:31;9.50;99.90
18297;DHT22;18066;52.106;5.534;2023-04-23T04:28:58;9.50;99.90
18297;DHT22;18066;52.106;5.534;2023-04-23T04:31:27;9.50;99.90
18297;DHT22;18066;52.106;5.534;2023-04-23T04:33:54;9.50;99.90
18297;DHT22;18066;52.106;5.534;2023-04-23T04:36:21;9.50;99.90
18297;DHT22;18066;52.106;5.534;2023-04-23T04:38:49;9.50;99.90
18297;DHT22;18066;52.106;5.534;2023-04-23T04:41:18;9.50;99.90
18297;DHT22;18066;52.106;5.534;2023-04-23T04:43:46;9.40;99.90
18297;DHT22;18066;52.106;5.534;2023-04-23T04:46:13;9.40;99.90
18297;DHT22;18066;52.106;5.534;2023-04-23T04:48:41;9.40;99.90
18297;DHT22;18066;52.106;5.534;2023-04-23T04:51:08;9.50;99.90
18297;DHT22;18066;52.106;5.534;2023-04-23T04:53:35;9.50;99.90
18297;DHT22;18066;52.106;5.534;2023-04-23T04:56:02;9.40;99.90
18297;DHT22;18066;52.106;5.534;2023-04-23T04:58:29;9.40;99.90
18297;DHT22;18066;52.106;5.534;2023-04-23T05:00:58;9.40;99.90
18297;DHT22;18066;52.106;5.534;2023-04-23T05:03:25;9.40;99.90
18297;DHT22;18066;52.106;5.534;2023-04-23T05:05:54;9.50;99.90
18297;DHT22;18066;52.106;5.534;2023-04-23T05:08:20;9.50;99.90
18297;DHT22;18066;52.106;5.534;2023-04-23T05:10:47;9.60;99.90
18297;DHT22;18066;52.106;5.534;2023-04-23T05:13:15;9.60;99.90
18297;DHT22;18066;52.106;5.534;2023-04-23T05:15:42;9.60;99.90
18297;DHT22;18066;52.106;5.534;2023-04-23T05:18:09;9.60;99.90
18297;DHT22;18066;52.106;5.534;2023-04-23T05:20:37;9.60;99.90
18297;DHT22;18066;52.106;5.534;2023-04-23T05:23:05;9.60;99.90
18297;DHT22;18066;52.106;5.534;2023-04-23T05:25:32;9.60;99.90
18297;DHT22;18066;52.106;5.534;2023-04-23T05:28:00;9.60;99.90
18297;DHT22;18066;52.106;5.534;2023-04-23T05:30:26;9.60;99.90
18297;DHT22;18066;52.106;5.534;2023-04-23T05:32:53;9.70;99.90
18297;DHT22;18066;52.106;5.534;2023-04-23T05:35:20;9.60;99.90
18297;DHT22;18066;52.106;5.534;2023-04-23T05:37:47;9.70;99.90
18297;DHT22;18066;52.106;5.534;2023-04-23T05:40:15;9.70;99.90
18297;DHT22;18066;52.106;5.534;2023-04-23T05:42:42;9.80;99.90
18297;DHT22;18066;52.106;5.534;2023-04-23T05:45:10;9.90;99.90
18297;DHT22;18066;52.106;5.534;2023-04-23T05:47:36;9.90;99.90
18297;DHT22;18066;52.106;5.534;2023-04-23T05:50:04;9.90;99.90
18297;DHT22;18066;52.106;5.534;2023-04-23T05:52:31;10.00;99.90
18297;DHT22;18066;52.106;5.534;2023-04-23T05:55:00;10.00;99.90
18297;DHT22;18066;52.106;5.534;2023-04-23T05:57:28;10.10;99.90
18297;DHT22;18066;52.106;5.534;2023-04-23T05:59:55;10.20;99.90
18297;DHT22;18066;52.106;5.534;2023-04-23T06:02:21;10.20;99.90
18297;DHT22;18066;52.106;5.534;2023-04-23T06:04:49;10.20;99.90
18297;DHT22;18066;52.106;5.534;2023-04-23T06:07:16;10.30;99.90
18297;DHT22;18066;52.106;5.534;2023-04-23T06:09:43;10.30;99.90
18297;DHT22;18066;52.106;5.534;2023-04-23T06:12:10;10.40;99.90
18297;DHT22;18066;52.106;5.534;2023-04-23T06:14:38;10.40;99.90
18297;DHT22;18066;52.106;5.534;2023-04-23T06:17:05;10.50;99.90
18297;DHT22;18066;52.106;5.534;2023-04-23T06:19:31;10.50;99.90
18297;DHT22;18066;52.106;5.534;2023-04-23T06:21:58;10.50;99.90
18297;DHT22;18066;52.106;5.534;2023-04-23T06:24:25;10.60;99.90
18297;DHT22;18066;52.106;5.534;2023-04-23T06:26:52;10.60;99.90
18297;DHT22;18066;52.106;5.534;2023-04-23T06:29:19;10.70;99.90
18297;DHT22;18066;52.106;5.534;2023-04-23T06:31:47;10.80;99.90
18297;DHT22;18066;52.106;5.534;2023-04-23T06:34:13;10.80;99.90
18297;DHT22;18066;52.106;5.534;2023-04-23T06:36:40;11.00;99.90
18297;DHT22;18066;52.106;5.534;2023-04-23T06:39:08;11.00;99.90
18297;DHT22;18066;52.106;5.534;2023-04-23T06:41:35;11.00;99.90
18297;DHT22;18066;52.106;5.534;2023-04-23T06:44:01;11.10;99.90
18297;DHT22;18066;52.106;5.534;2023-04-23T06:46:28;11.20;99.90
18297;DHT22;18066;52.106;5.534;2023-04-23T06:48:56;11.20;99.90
18297;DHT22;18066;52.106;5.534;2023-04-23T06:51:24;11.30;99.90
18297;DHT22;18066;52.106;5.534;2023-04-23T06:53:52;11.40;99.90
18297;DHT22;18066;52.106;5.534;2023-04-23T06:56:19;11.40;99.90
18297;DHT22;18066;52.106;5.534;2023-04-23T06:58:46;11.50;99.90
18297;DHT22;18066;52.106;5.534;2023-04-23T07:01:13;11.60;99.90
18297;DHT22;18066;52.106;5.534;2023-04-23T07:03:39;11.70;99.90
18297;DHT22;18066;52.106;5.534;2023-04-23T07:06:10;11.80;99.90
18297;DHT22;18066;52.106;5.534;2023-04-23T07:08:36;12.00;99.90
18297;DHT22;18066;52.106;5.534;2023-04-23T07:11:04;12.10;99.90
18297;DHT22;18066;52.106;5.534;2023-04-23T07:13:31;12.10;99.90
18297;DHT22;18066;52.106;5.534;2023-04-23T07:15:58;12.10;99.90
18297;DHT22;18066;52.106;5.534;2023-04-23T07:18:25;12.20;99.90
18297;DHT22;18066;52.106;5.534;2023-04-23T07:20:51;12.30;99.90
18297;DHT22;18066;52.106;5.534;2023-04-23T07:23:20;12.50;99.90
18297;DHT22;18066;52.106;5.534;2023-04-23T07:25:46;12.60;99.90
18297;DHT22;18066;52.106;5.534;2023-04-23T07:28:13;12.70;99.90
18297;DHT22;18066;52.106;5.534;2023-04-23T07:30:40;12.60;99.90
18297;DHT22;18066;52.106;5.534;2023-04-23T07:33:07;12.60;99.90
18297;DHT22;18066;52.106;5.534;2023-04-23T07:35:33;12.90;99.90
18297;DHT22;18066;52.106;5.534;2023-04-23T07:38:00;13.10;99.90
18297;DHT22;18066;52.106;5.534;2023-04-23T07:40:32;13.20;99.90
18297;DHT22;18066;52.106;5.534;2023-04-23T07:42:59;13.30;99.90
18297;DHT22;18066;52.106;5.534;2023-04-23T07:45:26;13.30;99.90
18297;DHT22;18066;52.106;5.534;2023-04-23T07:47:53;13.50;99.90
18297;DHT22;18066;52.106;5.534;2023-04-23T07:50:19;13.50;99.90
18297;DHT22;18066;52.106;5.534;2023-04-23T07:52:46;13.70;99.90
18297;DHT22;18066;52.106;5.534;2023-04-23T07:55:13;13.70;99.90
18297;DHT22;18066;52.106;5.534;2023-04-23T07:57:41;13.80;99.90
18297;DHT22;18066;52.106;5.534;2023-04-23T08:00:08;13.80;99.90
18297;DHT22;18066;52.106;5.534;2023-04-23T08:02:35;13.80;99.90
18297;DHT22;18066;52.106;5.534;2023-04-23T08:05:03;13.90;99.90
18297;DHT22;18066;52.106;5.534;2023-04-23T08:07:30;13.90;99.90
18297;DHT22;18066;52.106;5.534;2023-04-23T08:09:56;13.70;99.90
18297;DHT22;18066;52.106;5.534;2023-04-23T08:12:27;13.70;99.90
18297;DHT22;18066;52.106;5.534;2023-04-23T08:14:55;13.80;99.90
18297;DHT22;18066;52.106;5.534;2023-04-23T08:17:22;14.00;99.90
18297;DHT22;18066;52.106;5.534;2023-04-23T08:19:49;14.10;99.90
18297;DHT22;18066;52.106;5.534;2023-04-23T08:22:16;14.10;99.90
18297;DHT22;18066;52.106;5.534;2023-04-23T08:24:43;14.10;99.90
18297;DHT22;18066;52.106;5.534;2023-04-23T08:27:10;14.20;99.90
18297;DHT22;18066;52.106;5.534;2023-04-23T08:29:37;14.30;99.90
18297;DHT22;18066;52.106;5.534;2023-04-23T08:32:05;14.40;99.90
18297;DHT22;18066;52.106;5.534;2023-04-23T08:34:32;14.50;99.90
18297;DHT22;18066;52.106;5.534;2023-04-23T08:36:59;14.50;99.90
18297;DHT22;18066;52.106;5.534;2023-04-23T08:39:26;14.50;99.90
18297;DHT22;18066;52.106;5.534;2023-04-23T08:41:55;14.60;99.90
18297;DHT22;18066;52.106;5.534;2023-04-23T08:44:24;14.80;99.90
18297;DHT22;18066;52.106;5.534;2023-04-23T08:46:53;15.00;99.90
18297;DHT22;18066;52.106;5.534;2023-04-23T08:49:21;15.20;99.90
18297;DHT22;18066;52.106;5.534;2023-04-23T08:51:51;15.10;99.90
18297;DHT22;18066;52.106;5.534;2023-04-23T08:54:21;15.30;99.90
18297;DHT22;18066;52.106;5.534;2023-04-23T08:56:50;15.50;99.90
18297;DHT22;18066;52.106;5.534;2023-04-23T08:59:17;15.70;99.90
18297;DHT22;18066;52.106;5.534;2023-04-23T09:01:45;15.70;99.90
18297;DHT22;18066;52.106;5.534;2023-04-23T09:04:12;15.90;99.90
18297;DHT22;18066;52.106;5.534;2023-04-23T09:06:42;15.80;99.90
18297;DHT22;18066;52.106;5.534;2023-04-23T09:09:10;15.80;99.90
18297;DHT22;18066;52.106;5.534;2023-04-23T09:11:38;15.80;99.90
18297;DHT22;18066;52.106;5.534;2023-04-23T09:14:05;15.60;99.90
18297;DHT22;18066;52.106;5.534;2023-04-23T09:16:32;15.40;99.90
18297;DHT22;18066;52.106;5.534;2023-04-23T09:18:59;15.50;99.90
18297;DHT22;18066;52.106;5.534;2023-04-23T09:21:25;15.70;99.90
18297;DHT22;18066;52.106;5.534;2023-04-23T09:23:53;15.60;99.90
18297;DHT22;18066;52.106;5.534;2023-04-23T09:26:21;15.60;99.90
18297;DHT22;18066;52.106;5.534;2023-04-23T09:28:49;15.70;99.90
18297;DHT22;18066;52.106;5.534;2023-04-23T09:31:19;15.90;99.90
18297;DHT22;18066;52.106;5.534;2023-04-23T09:33:51;16.00;99.90
18297;DHT22;18066;52.106;5.534;2023-04-23T09:36:20;15.90;99.90
18297;DHT22;18066;52.106;5.534;2023-04-23T09:38:48;16.00;99.90
18297;DHT22;18066;52.106;5.534;2023-04-23T09:41:24;16.00;99.90
18297;DHT22;18066;52.106;5.534;2023-04-23T09:43:54;16.20;99.90
18297;DHT22;18066;52.106;5.534;2023-04-23T09:46:35;16.20;99.90
18297;DHT22;18066;52.106;5.534;2023-04-23T09:49:03;16.20;99.90
18297;DHT22;18066;52.106;5.534;2023-04-23T09:51:32;16.20;99.90
18297;DHT22;18066;52.106;5.534;2023-04-23T09:54:01;16.20;99.90
18297;DHT22;18066;52.106;5.534;2023-04-23T09:56:30;16.30;99.90
18297;DHT22;18066;52.106;5.534;2023-04-23T09:58:57;16.10;99.90
18297;DHT22;18066;52.106;5.534;2023-04-23T10:01:28;15.90;99.90
18297;DHT22;18066;52.106;5.534;2023-04-23T10:03:55;16.10;99.90
18297;DHT22;18066;52.106;5.534;2023-04-23T10:06:26;16.30;99.90
18297;DHT22;18066;52.106;5.534;2023-04-23T10:08:55;16.40;99.90
18297;DHT22;18066;52.106;5.534;2023-04-23T10:11:22;16.40;99.90
18297;DHT22;18066;52.106;5.534;2023-04-23T10:13:52;16.50;99.90
18297;DHT22;18066;52.106;5.534;2023-04-23T10:16:20;16.80;99.90
18297;DHT22;18066;52.106;5.534;2023-04-23T10:18:49;17.40;99.90
18297;DHT22;18066;52.106;5.534;2023-04-23T10:21:17;17.10;99.90
18297;DHT22;18066;52.106;5.534;2023-04-23T10:23:46;17.10;99.90
18297;DHT22;18066;52.106;5.534;2023-04-23T10:26:14;17.20;99.90
18297;DHT22;18066;52.106;5.534;2023-04-23T10:28:44;17.10;99.90
18297;DHT22;18066;52.106;5.534;2023-04-23T10:31:13;17.40;99.90
18297;DHT22;18066;52.106;5.534;2023-04-23T10:33:42;17.60;99.90
18297;DHT22;18066;52.106;5.534;2023-04-23T10:36:10;17.80;99.90
18297;DHT22;18066;52.106;5.534;2023-04-23T10:38:38;17.90;99.90
18297;DHT22;18066;52.106;5.534;2023-04-23T10:41:06;17.60;99.90
18297;DHT22;18066;52.106;5.534;2023-04-23T10:43:34;17.60;99.90
18297;DHT22;18066;52.106;5.534;2023-04-23T10:46:01;17.30;99.90
18297;DHT22;18066;52.106;5.534;2023-04-23T10:49:04;17.30;99.90
18297;DHT22;18066;52.106;5.534;2023-04-23T10:51:34;17.10;99.90
18297;DHT22;18066;52.106;5.534;2023-04-23T10:54:02;17.00;99.90
18297;DHT22;18066;52.106;5.534;2023-04-23T10:56:29;16.80;99.90
18297;DHT22;18066;52.106;5.534;2023-04-23T10:58:56;17.00;99.90
18297;DHT22;18066;52.106;5.534;2023-04-23T11:01:24;17.20;99.90
18297;DHT22;18066;52.106;5.534;2023-04-23T11:03:53;17.30;99.90
18297;DHT22;18066;52.106;5.534;2023-04-23T11:06:49;17.60;99.90
18297;DHT22;18066;52.106;5.534;2023-04-23T11:09:31;17.80;99.90
18297;DHT22;18066;52.106;5.534;2023-04-23T11:11:58;17.70;99.90
18297;DHT22;18066;52.106;5.534;2023-04-23T11:14:36;17.80;99.90
18297;DHT22;18066;52.106;5.534;2023-04-23T11:17:03;17.80;99.90
18297;DHT22;18066;52.106;5.534;2023-04-23T11:19:34;17.80;99.90
18297;DHT22;18066;52.106;5.534;2023-04-23T11:22:02;17.60;99.90
18297;DHT22;18066;52.106;5.534;2023-04-23T11:24:32;18.00;99.90
18297;DHT22;18066;52.106;5.534;2023-04-23T11:27:04;18.20;99.90
18297;DHT22;18066;52.106;5.534;2023-04-23T11:29:31;18.30;99.90
18297;DHT22;18066;52.106;5.534;2023-04-23T11:31:59;18.50;99.90
18297;DHT22;18066;52.106;5.534;2023-04-23T11:34:27;18.60;99.90
18297;DHT22;18066;52.106;5.534;2023-04-23T11:36:57;18.70;99.90
18297;DHT22;18066;52.106;5.534;2023-04-23T11:39:24;18.10;99.90
18297;DHT22;18066;52.106;5.534;2023-04-23T11:41:51;17.80;99.90
18297;DHT22;18066;52.106;5.534;2023-04-23T11:44:18;18.00;99.90
18297;DHT22;18066;52.106;5.534;2023-04-23T11:46:46;18.30;99.90
18297;DHT22;18066;52.106;5.534;2023-04-23T11:49:14;18.50;99.90
18297;DHT22;18066;52.106;5.534;2023-04-23T11:51:41;18.90;99.90
18297;DHT22;18066;52.106;5.534;2023-04-23T11:54:11;18.60;99.90
18297;DHT22;18066;52.106;5.534;2023-04-23T11:56:39;18.10;99.90
18297;DHT22;18066;52.106;5.534;2023-04-23T11:59:06;18.00;99.90
18297;DHT22;18066;52.106;5.534;2023-04-23T12:01:43;17.40;99.90
18297;DHT22;18066;52.106;5.534;2023-04-23T12:04:12;17.20;99.90
18297;DHT22;18066;52.106;5.534;2023-04-23T12:06:40;17.40;99.90
18297;DHT22;18066;52.106;5.534;2023-04-23T12:09:08;17.80;99.90
18297;DHT22;18066;52.106;5.534;2023-04-23T12:11:37;17.80;99.90
18297;DHT22;18066;52.106;5.534;2023-04-23T12:14:04;17.80;99.90
18297;DHT22;18066;52.106;5.534;2023-04-23T12:16:34;17.80;99.90
18297;DHT22;18066;52.106;5.534;2023-04-23T12:19:01;17.90;99.90
18297;DHT22;18066;52.106;5.534;2023-04-23T12:21:28;18.00;99.90
18297;DHT22;18066;52.106;5.534;2023-04-23T12:23:55;17.90;99.90
18297;DHT22;18066;52.106;5.534;2023-04-23T12:26:24;18.10;99.90
18297;DHT22;18066;52.106;5.534;2023-04-23T12:28:54;17.90;99.90
18297;DHT22;18066;52.106;5.534;2023-04-23T12:31:24;18.00;99.90
18297;DHT22;18066;52.106;5.534;2023-04-23T12:34:01;18.30;99.90
18297;DHT22;18066;52.106;5.534;2023-04-23T12:36:29;18.50;99.90
18297;DHT22;18066;52.106;5.534;2023-04-23T12:39:21;18.80;99.90
18297;DHT22;18066;52.106;5.534;2023-04-23T12:41:49;19.00;99.90
18297;DHT22;18066;52.106;5.534;2023-04-23T12:44:19;19.00;99.90
18297;DHT22;18066;52.106;5.534;2023-04-23T12:46:49;19.30;99.90
18297;DHT22;18066;52.106;5.534;2023-04-23T12:49:19;19.60;99.90
18297;DHT22;18066;52.106;5.534;2023-04-23T12:51:49;19.00;99.90
18297;DHT22;18066;52.106;5.534;2023-04-23T12:54:17;19.10;99.90
18297;DHT22;18066;52.106;5.534;2023-04-23T12:56:44;19.30;99.90
18297;DHT22;18066;52.106;5.534;2023-04-23T12:59:11;19.30;99.90
18297;DHT22;18066;52.106;5.534;2023-04-23T13:01:39;19.10;99.90
18297;DHT22;18066;52.106;5.534;2023-04-23T13:04:06;18.90;99.90
18297;DHT22;18066;52.106;5.534;2023-04-23T13:06:33;18.80;99.90
18297;DHT22;18066;52.106;5.534;2023-04-23T13:09:00;18.70;99.90
18297;DHT22;18066;52.106;5.534;2023-04-23T13:11:29;18.50;99.90
18297;DHT22;18066;52.106;5.534;2023-04-23T13:13:56;18.30;99.90
18297;DHT22;18066;52.106;5.534;2023-04-23T13:16:23;18.30;99.90
18297;DHT22;18066;52.106;5.534;2023-04-23T13:18:52;18.20;99.90
18297;DHT22;18066;52.106;5.534;2023-04-23T13:21:19;18.30;99.90
18297;DHT22;18066;52.106;5.534;2023-04-23T13:23:46;18.20;99.90
18297;DHT22;18066;52.106;5.534;2023-04-23T13:26:13;17.90;99.90
18297;DHT22;18066;52.106;5.534;2023-04-23T13:28:40;17.60;99.90
18297;DHT22;18066;52.106;5.534;2023-04-23T13:31:07;17.70;99.90
18297;DHT22;18066;52.106;5.534;2023-04-23T13:33:36;17.80;99.90
18297;DHT22;18066;52.106;5.534;2023-04-23T13:36:06;18.00;99.90
18297;DHT22;18066;52.106;5.534;2023-04-23T13:38:33;18.20;99.90
18297;DHT22;18066;52.106;5.534;2023-04-23T13:41:00;18.20;99.90
18297;DHT22;18066;52.106;5.534;2023-04-23T13:43:27;18.00;99.90
18297;DHT22;18066;52.106;5.534;2023-04-23T13:45:54;17.90;99.90
18297;DHT22;18066;52.106;5.534;2023-04-23T13:48:22;17.90;99.90
18297;DHT22;18066;52.106;5.534;2023-04-23T13:50:53;17.70;99.90
18297;DHT22;18066;52.106;5.534;2023-04-23T13:53:21;17.50;99.90
18297;DHT22;18066;52.106;5.534;2023-04-23T13:55:48;17.50;99.90
18297;DHT22;18066;52.106;5.534;2023-04-23T13:58:15;17.50;99.90
18297;DHT22;18066;52.106;5.534;2023-04-23T14:00:42;17.80;99.90
18297;DHT22;18066;52.106;5.534;2023-04-23T14:03:09;18.00;99.90
18297;DHT22;18066;52.106;5.534;2023-04-23T14:05:36;18.00;99.90
18297;DHT22;18066;52.106;5.534;2023-04-23T14:08:04;18.20;99.90
18297;DHT22;18066;52.106;5.534;2023-04-23T14:10:32;18.40;99.90
18297;DHT22;18066;52.106;5.534;2023-04-23T14:13:00;18.40;99.90
18297;DHT22;18066;52.106;5.534;2023-04-23T14:15:28;18.50;99.90
18297;DHT22;18066;52.106;5.534;2023-04-23T14:17:54;18.40;99.90
18297;DHT22;18066;52.106;5.534;2023-04-23T14:20:22;18.40;99.90
18297;DHT22;18066;52.106;5.534;2023-04-23T14:22:50;18.40;99.90
18297;DHT22;18066;52.106;5.534;2023-04-23T14:25:24;18.10;99.90
18297;DHT22;18066;52.106;5.534;2023-04-23T14:27:55;18.00;99.90
18297;DHT22;18066;52.106;5.534;2023-04-23T14:30:24;17.80;99.90
18297;DHT22;18066;52.106;5.534;2023-04-23T14:32:52;17.70;99.90
18297;DHT22;18066;52.106;5.534;2023-04-23T14:35:20;17.60;99.90
18297;DHT22;18066;52.106;5.534;2023-04-23T14:37:49;17.40;99.90
18297;DHT22;18066;52.106;5.534;2023-04-23T14:40:15;17.30;99.90
18297;DHT22;18066;52.106;5.534;2023-04-23T14:42:46;17.30;99.90
18297;DHT22;18066;52.106;5.534;2023-04-23T14:45:14;17.50;99.90
18297;DHT22;18066;52.106;5.534;2023-04-23T14:47:42;17.50;99.90
18297;DHT22;18066;52.106;5.534;2023-04-23T14:50:13;17.40;99.90
18297;DHT22;18066;52.106;5.534;2023-04-23T14:52:40;17.40;99.90
18297;DHT22;18066;52.106;5.534;2023-04-23T14:55:09;17.40;99.90
18297;DHT22;18066;52.106;5.534;2023-04-23T14:57:36;17.40;99.90
18297;DHT22;18066;52.106;5.534;2023-04-23T15:00:03;17.20;99.90
18297;DHT22;18066;52.106;5.534;2023-04-23T15:02:33;16.50;99.90
18297;DHT22;18066;52.106;5.534;2023-04-23T15:05:00;16.10;99.90
18297;DHT22;18066;52.106;5.534;2023-04-23T15:07:27;15.70;99.90
18297;DHT22;18066;52.106;5.534;2023-04-23T15:09:56;15.30;99.90
18297;DHT22;18066;52.106;5.534;2023-04-23T15:12:41;15.10;99.90
18297;DHT22;18066;52.106;5.534;2023-04-23T15:15:14;14.40;99.90
18297;DHT22;18066;52.106;5.534;2023-04-23T15:17:42;13.60;99.90
18297;DHT22;18066;52.106;5.534;2023-04-23T15:20:09;13.40;99.90
18297;DHT22;18066;52.106;5.534;2023-04-23T15:22:36;13.20;99.90
18297;DHT22;18066;52.106;5.534;2023-04-23T15:25:03;13.20;99.90
18297;DHT22;18066;52.106;5.534;2023-04-23T15:27:30;13.10;99.90
18297;DHT22;18066;52.106;5.534;2023-04-23T15:29:57;13.10;99.90
18297;DHT22;18066;52.106;5.534;2023-04-23T15:32:24;13.10;99.90
18297;DHT22;18066;52.106;5.534;2023-04-23T15:34:53;13.10;99.90
18297;DHT22;18066;52.106;5.534;2023-04-23T15:37:19;13.10;99.90
18297;DHT22;18066;52.106;5.534;2023-04-23T15:39:48;13.10;99.90
18297;DHT22;18066;52.106;5.534;2023-04-23T15:42:16;13.00;99.90